createdAt,value
2023-03-23T00:03:41.739Z,28.50
2023-03-23T00:56:25.565Z,28.00
2023-03-23T01:04:25.689Z,27.99
2023-03-23T01:12:26.022Z,28.02
2023-03-23T01:20:25.837Z,28.06
2023-03-23T01:24:26.742Z,28.10
2023-03-23T01:28:26.671Z,28.09
2023-03-23T01:32:26.585Z,28.04
2023-03-23T01:36:26.511Z,28.07
2023-03-23T01:40:26.434Z,28.06
2023-03-23T01:44:26.610Z,28.10
2023-03-23T01:48:26.744Z,28.04
2023-03-23T01:52:26.637Z,28.06
2023-03-23T01:56:26.513Z,27.97
2023-03-23T02:00:26.537Z,28.04
2023-03-23T02:04:26.365Z,28.02
2023-03-23T02:08:26.415Z,28.00
2023-03-23T02:12:26.184Z,27.98
2023-03-23T02:16:26.163Z,28.01
2023-03-23T02:20:26.146Z,27.97
2023-03-23T02:24:26.326Z,28.00
2023-03-23T02:28:26.419Z,27.95
2023-03-23T02:32:26.605Z,27.95
2023-03-23T02:36:26.718Z,27.98
2023-03-23T02:40:26.895Z,27.92
2023-03-23T02:44:26.811Z,27.98
2023-03-23T02:48:26.744Z,27.91
2023-03-23T02:52:26.618Z,27.89
2023-03-23T02:56:26.513Z,27.92
2023-03-23T03:00:26.427Z,27.92
2023-03-23T03:04:26.347Z,27.88
2023-03-23T03:08:26.264Z,27.89
2023-03-23T03:12:26.328Z,27.86
2023-03-23T03:16:26.454Z,27.83
2023-03-23T03:20:26.634Z,27.85
2023-03-23T03:24:26.700Z,27.85
2023-03-23T03:28:26.854Z,27.83
2023-03-23T03:32:26.781Z,27.79
2023-03-23T03:36:26.727Z,27.82
2023-03-23T03:40:26.624Z,27.77
2023-03-23T03:44:26.543Z,27.79
2023-03-23T03:48:26.434Z,27.77
2023-03-23T03:52:26.346Z,27.77
2023-03-23T03:56:26.297Z,27.79
2023-03-23T04:00:26.319Z,27.75
2023-03-23T04:04:26.332Z,27.74
2023-03-23T04:08:26.335Z,27.74
2023-03-23T04:12:26.342Z,27.74
2023-03-23T04:16:26.431Z,27.74
2023-03-23T04:20:32.254Z,27.70
2023-03-23T04:24:56.106Z,27.65
2023-03-23T04:28:26.218Z,27.67
2023-03-23T04:32:26.108Z,27.68
2023-03-23T04:36:26.013Z,27.70
2023-03-23T04:40:25.934Z,27.69
2023-03-23T04:44:25.793Z,27.65
2023-03-23T04:48:25.684Z,27.70
2023-03-23T04:52:25.565Z,27.65
2023-03-23T04:56:25.485Z,27.63
2023-03-23T05:00:25.355Z,27.65
2023-03-23T05:04:25.243Z,27.62
2023-03-23T05:08:25.127Z,27.62
2023-03-23T05:12:25.057Z,27.61
2023-03-23T05:16:24.919Z,27.61
2023-03-23T05:20:25.043Z,27.61
2023-03-23T05:24:25.125Z,27.58
2023-03-23T05:28:25.230Z,27.56
2023-03-23T05:32:25.372Z,27.58
2023-03-23T05:36:25.453Z,27.53
2023-03-23T05:40:25.357Z,27.53
2023-03-23T05:44:25.276Z,27.53
2023-03-23T05:48:25.171Z,27.50
2023-03-23T05:52:25.073Z,27.47
2023-03-23T05:56:24.982Z,27.50
2023-03-23T06:00:24.901Z,27.47
2023-03-23T06:04:24.775Z,27.43
2023-03-23T06:08:24.972Z,27.43
2023-03-23T06:12:24.781Z,27.47
2023-03-23T06:16:25.005Z,27.40
2023-03-23T06:20:24.996Z,27.38
2023-03-23T06:24:24.976Z,27.44
2023-03-23T06:28:24.477Z,27.57
2023-03-23T06:32:24.508Z,27.55
2023-03-23T06:36:24.454Z,27.57
2023-03-23T06:40:24.487Z,27.65
2023-03-23T06:44:24.496Z,27.60
2023-03-23T06:48:24.527Z,27.92
2023-03-23T06:52:24.509Z,27.97
2023-03-23T06:56:24.054Z,28.85
2023-03-23T07:00:24.429Z,28.69
2023-03-23T07:04:31.506Z,28.54
2023-03-23T07:08:24.561Z,28.56
2023-03-23T07:12:24.679Z,28.61
2023-03-23T07:16:24.584Z,28.56
2023-03-23T07:20:24.073Z,28.59
2023-03-23T07:24:24.033Z,28.56
2023-03-23T07:28:24.058Z,28.57
2023-03-23T07:32:24.142Z,28.50
2023-03-23T07:36:23.581Z,28.49
2023-03-23T07:40:23.546Z,28.49
2023-03-23T07:44:23.580Z,28.49
2023-03-23T07:48:23.554Z,28.41
2023-03-23T07:52:23.567Z,28.41
2023-03-23T07:56:24.594Z,28.44
2023-03-23T08:00:23.253Z,28.38
2023-03-23T08:04:23.594Z,28.38
2023-03-23T08:08:24.534Z,28.32
2023-03-23T08:12:23.520Z,28.28
2023-03-23T08:16:23.548Z,28.26
2023-03-23T08:20:23.253Z,28.29
2023-03-23T08:24:23.563Z,28.28
2023-03-23T08:28:23.547Z,28.19
2023-03-23T08:32:23.122Z,28.18
2023-03-23T08:36:23.076Z,28.61
2023-03-23T08:40:23.099Z,29.01
2023-03-23T08:44:23.091Z,29.29
2023-03-23T08:48:23.057Z,29.52
2023-03-23T08:52:23.592Z,29.74
2023-03-23T08:56:23.581Z,30.39
2023-03-23T09:00:23.594Z,30.38
2023-03-23T09:04:23.585Z,30.70
2023-03-23T09:08:23.596Z,30.94
2023-03-23T09:12:23.198Z,31.14
2023-03-23T09:16:23.575Z,31.47
2023-03-23T09:20:23.051Z,31.70
2023-03-23T09:24:23.097Z,33.05
2023-03-23T09:28:23.121Z,32.77
2023-03-23T09:32:23.094Z,32.94
2023-03-23T09:36:22.768Z,33.16
2023-03-23T09:40:23.096Z,33.33
2023-03-23T09:44:23.110Z,33.61
2023-03-23T09:48:22.586Z,33.79
2023-03-23T09:52:22.575Z,34.09
2023-03-23T09:56:22.583Z,34.16
2023-03-23T10:00:22.645Z,34.34
2023-03-23T10:04:22.588Z,34.54
2023-03-23T10:08:22.449Z,34.68
2023-03-23T10:12:22.571Z,34.84
2023-03-23T10:16:22.584Z,35.06
2023-03-23T10:20:22.591Z,35.16
2023-03-23T10:24:22.595Z,35.32
2023-03-23T10:28:22.601Z,35.37
2023-03-23T10:32:22.688Z,35.46
2023-03-23T10:36:22.232Z,35.69
2023-03-23T10:40:22.446Z,35.83
2023-03-23T10:44:22.154Z,35.78
2023-03-23T10:48:21.609Z,36.08
2023-03-23T10:52:21.580Z,36.28
2023-03-23T10:56:21.607Z,36.36
2023-03-23T11:00:21.867Z,36.50
2023-03-23T11:04:21.168Z,36.64
2023-03-23T11:08:21.185Z,36.80
2023-03-23T11:12:21.125Z,36.98
2023-03-23T11:16:21.110Z,37.20
2023-03-23T11:20:21.260Z,37.42
2023-03-23T11:24:21.111Z,37.57
2023-03-23T11:28:21.641Z,37.85
2023-03-23T11:32:21.616Z,38.22
2023-03-23T11:36:21.699Z,38.70
2023-03-23T11:40:21.622Z,38.39
2023-03-23T11:44:21.131Z,37.88
2023-03-23T11:48:21.111Z,37.84
2023-03-23T11:52:21.193Z,37.80
2023-03-23T11:56:21.128Z,37.76
2023-03-23T12:00:20.613Z,37.75
2023-03-23T12:04:20.631Z,37.65
2023-03-23T12:12:19.633Z,37.54
2023-03-23T12:16:20.640Z,37.48
2023-03-23T12:20:20.630Z,37.45
2023-03-23T12:24:20.132Z,37.35
2023-03-23T12:28:20.615Z,37.23
2023-03-23T12:32:20.135Z,37.08
2023-03-23T12:36:20.179Z,36.98
2023-03-23T12:40:20.202Z,36.90
2023-03-23T12:44:20.171Z,36.87
2023-03-23T12:48:19.688Z,36.75
2023-03-23T12:52:20.178Z,36.68
2023-03-23T12:56:19.679Z,36.58
2023-03-23T13:00:19.577Z,36.59
2023-03-23T13:04:19.654Z,36.55
2023-03-23T13:08:19.657Z,36.43
2023-03-23T13:12:19.694Z,36.42
2023-03-23T13:16:19.545Z,36.23
2023-03-23T13:20:19.645Z,36.20
2023-03-23T13:24:19.632Z,36.12
2023-03-23T13:28:19.658Z,36.07
2023-03-23T13:32:19.867Z,36.00
2023-03-23T13:36:19.683Z,35.97
2023-03-23T13:40:19.532Z,35.89
2023-03-23T13:44:19.694Z,35.78
2023-03-23T13:48:19.696Z,35.73
2023-03-23T13:52:19.665Z,35.68
2023-03-23T13:56:19.743Z,35.60
2023-03-23T14:00:19.672Z,35.59
2023-03-23T14:04:20.150Z,35.49
2023-03-23T14:08:20.202Z,35.46
2023-03-23T14:12:20.174Z,35.42
2023-03-23T14:16:19.766Z,35.43
2023-03-23T14:20:20.163Z,35.39
2023-03-23T14:24:20.170Z,35.36
2023-03-23T14:28:20.204Z,35.30
2023-03-23T14:32:20.197Z,35.28
2023-03-23T14:36:19.890Z,35.16
2023-03-23T14:40:20.194Z,35.14
2023-03-23T14:44:20.313Z,35.12
2023-03-23T14:48:20.042Z,35.04
2023-03-23T14:52:20.154Z,34.96
2023-03-23T14:56:20.181Z,34.90
2023-03-23T15:00:20.223Z,34.81
2023-03-23T15:04:20.811Z,34.74
2023-03-23T15:08:20.215Z,34.72
2023-03-23T15:12:20.668Z,32.78
2023-03-23T15:16:20.665Z,32.10
2023-03-23T15:20:20.741Z,32.18
2023-03-23T15:24:20.717Z,34.66
2023-03-23T15:28:20.473Z,34.43
2023-03-23T15:32:20.715Z,33.80
2023-03-23T15:36:20.819Z,33.47
2023-03-23T15:40:20.117Z,33.59
2023-03-23T15:44:20.210Z,33.93
2023-03-23T15:48:20.220Z,33.90
2023-03-23T15:52:20.258Z,34.13
2023-03-23T15:56:19.651Z,34.16
2023-03-23T16:00:20.199Z,34.17
2023-03-23T16:04:20.201Z,34.11
2023-03-23T16:08:20.269Z,34.10
2023-03-23T16:12:19.965Z,34.02
2023-03-23T16:16:20.286Z,34.03
2023-03-23T16:20:20.204Z,33.94
2023-03-23T16:24:20.283Z,33.98
2023-03-23T16:28:20.708Z,33.94
2023-03-23T16:32:20.368Z,33.93
2023-03-23T16:36:20.515Z,33.89
2023-03-23T16:40:20.621Z,33.86
2023-03-23T16:44:20.646Z,33.85
2023-03-23T16:48:20.738Z,33.83
2023-03-23T16:52:20.817Z,33.83
2023-03-23T16:56:20.968Z,33.77
2023-03-23T17:00:20.993Z,33.78
2023-03-23T17:04:21.099Z,33.78
2023-03-23T17:08:21.265Z,33.71
2023-03-23T17:12:21.371Z,33.71
2023-03-23T17:16:21.505Z,33.66
2023-03-23T17:20:21.494Z,33.63
2023-03-23T17:24:21.562Z,33.69
2023-03-23T17:28:21.843Z,33.65
2023-03-23T17:32:21.823Z,33.60
2023-03-23T17:36:21.882Z,33.60
2023-03-23T17:40:21.982Z,33.60
2023-03-23T17:44:22.136Z,33.52
2023-03-23T17:48:22.198Z,33.51
2023-03-23T17:52:22.358Z,33.47
2023-03-23T17:56:22.498Z,33.50
2023-03-23T18:00:22.630Z,33.50
2023-03-23T18:04:22.718Z,33.44
2023-03-23T18:08:22.853Z,33.43
2023-03-23T18:12:23.002Z,33.43
2023-03-23T18:16:23.210Z,33.37
2023-03-23T18:20:23.322Z,33.36
2023-03-23T18:24:23.392Z,33.33
2023-03-23T18:28:23.558Z,33.30
2023-03-23T18:32:23.743Z,33.27
2023-03-23T18:36:23.907Z,33.27
2023-03-23T18:40:24.007Z,33.23
2023-03-23T18:44:24.152Z,33.23
2023-03-23T18:48:24.327Z,33.19
2023-03-23T18:52:24.447Z,33.21
2023-03-23T18:56:24.705Z,33.16
2023-03-23T19:00:24.545Z,33.13
2023-03-23T19:04:24.487Z,33.15
2023-03-23T19:08:24.412Z,33.02
2023-03-23T19:12:24.309Z,33.03
2023-03-23T19:16:24.311Z,33.00
2023-03-23T19:24:24.101Z,32.95
2023-03-23T19:29:03.860Z,32.92
2023-03-23T19:32:24.086Z,32.90
2023-03-23T19:36:24.279Z,32.86
2023-03-23T19:40:39.580Z,32.81
2023-03-23T19:44:23.689Z,32.84
2023-03-23T19:48:23.685Z,32.80
2023-03-23T19:52:23.622Z,32.78
2023-03-23T19:56:23.516Z,32.78
2023-03-23T20:00:24.686Z,32.70
2023-03-23T20:04:23.524Z,32.76
2023-03-23T20:08:23.266Z,32.67
2023-03-23T20:12:23.240Z,32.70
2023-03-23T20:16:23.607Z,32.67
2023-03-23T20:20:23.749Z,32.62
2023-03-23T20:24:23.086Z,32.60
2023-03-23T20:28:23.373Z,32.62
2023-03-23T20:32:22.997Z,32.61
2023-03-23T20:36:22.994Z,32.59
2023-03-23T20:40:22.942Z,32.57
2023-03-23T20:44:22.773Z,32.53
2023-03-23T20:48:22.692Z,32.51
2023-03-23T20:52:22.615Z,32.48
2023-03-23T20:56:22.815Z,32.47
2023-03-23T21:00:22.642Z,32.46
2023-03-23T21:04:22.646Z,32.46
2023-03-23T21:08:22.515Z,32.38
2023-03-23T21:12:22.484Z,32.41
2023-03-23T21:16:22.365Z,32.35
2023-03-23T21:20:22.380Z,32.36
2023-03-23T21:24:22.256Z,32.33
2023-03-23T21:28:22.431Z,32.27
2023-03-23T21:32:22.360Z,32.29
2023-03-23T21:36:22.376Z,32.27
2023-03-23T21:40:22.237Z,32.22
2023-03-23T21:44:22.212Z,32.18
2023-03-23T21:48:22.130Z,32.22
2023-03-23T21:52:22.132Z,32.13
2023-03-23T21:56:22.098Z,32.16
2023-03-23T22:00:22.218Z,32.16
2023-03-23T22:04:22.280Z,32.10
2023-03-23T22:08:22.412Z,32.12
2023-03-23T22:12:22.538Z,32.05
2023-03-23T22:16:22.630Z,32.07
2023-03-23T22:20:22.643Z,32.05
2023-03-23T22:24:22.700Z,32.00
2023-03-23T22:28:22.712Z,31.98
2023-03-23T22:32:22.808Z,31.95
2023-03-23T22:36:22.845Z,31.96
2023-03-23T22:40:22.802Z,31.96
2023-03-23T22:44:22.723Z,31.92
2023-03-23T22:48:22.656Z,31.92
2023-03-23T22:52:22.578Z,31.87
2023-03-23T22:56:22.600Z,31.83
2023-03-23T23:00:22.518Z,31.81
2023-03-23T23:04:22.495Z,31.86
2023-03-23T23:08:22.382Z,31.78
2023-03-23T23:12:22.399Z,31.83
2023-03-23T23:16:22.415Z,31.78
2023-03-23T23:20:22.259Z,31.72
2023-03-23T23:24:22.158Z,31.75
2023-03-23T23:28:22.172Z,31.70
2023-03-23T23:32:22.109Z,31.70
2023-03-23T23:36:22.084Z,31.69
2023-03-23T23:40:22.043Z,31.64
2023-03-23T23:44:21.999Z,31.61
2023-03-23T23:48:21.958Z,31.60
2023-03-23T23:52:21.956Z,31.58
2023-03-23T23:56:21.857Z,31.61
